Time;durP1;ratioP1;P1;durP2;ratioP2;P2;SDS_P1;SDS_P2;PMS_P1;PMS_P2;Temp;Humidity;BMP_temperature;BMP_pressure;BME280_temperature;BME280_humidity;BME280_pressure;Samples;Min_cycle;Max_cycle;Signal;HPM_P1;HPM_P2
2022/05/08 00:01:55;;;;;;;;;;;;;;;-140.72;100.00;52500.44;5086130;28;19927;-67
2022/05/08 00:04:21;;;;;;;;;;;;;;;-140.72;100.00;52575.50;5084785;28;19917;-67
2022/05/08 00:06:46;;;;;;;;;;;;;;;-140.72;100.00;52593.78;5076026;28;19927;-67
2022/05/08 00:09:11;;;;;;;;;;;;;;;-140.72;100.00;52541.03;5085833;28;19917;-67
2022/05/08 00:11:36;;;;;;;;;;;;;;;-140.72;100.00;52561.31;5081423;28;20279;-67
2022/05/08 00:14:01;;;;;;;;;;;;;;;-140.72;100.00;52601.91;5079976;28;19916;-67
2022/05/08 00:16:27;;;;;;;;;;;;;;;-140.72;100.00;52589.72;5077908;28;19974;-67
2022/05/08 00:18:53;;;;;;;;;;;;;;;-140.72;100.00;52557.25;5080528;28;19917;-67
2022/05/08 00:21:18;;;;;;;;;;;;;;;-140.72;100.00;52599.88;5083771;28;20363;-67
2022/05/08 00:23:43;;;;;;;;;;;;;;;-140.72;100.00;52504.50;5076163;28;19927;-67
2022/05/08 00:26:09;;;;;;;;;;;;;;;-140.72;100.00;52534.94;5072226;28;20329;-68
2022/05/08 00:28:35;;;;;;;;;;;;;;;-140.72;100.00;52571.47;5078027;28;20367;-67
2022/05/08 00:31:00;;;;;;;;;;;;;;;-140.72;100.00;52567.41;5080872;28;19920;-67
2022/05/08 00:33:25;;;;;;;;;;;;;;;-140.72;100.00;52520.72;5084351;28;20368;-67
2022/05/08 00:35:50;;;;;;;;;;;;;;;-140.72;100.00;52577.53;5080249;28;20019;-67
2022/05/08 00:38:15;;;;;;;;;;;;;;;-140.72;100.00;52553.19;5081586;28;20045;-67
2022/05/08 00:40:41;;;;;;;;;;;;;;;-140.72;100.00;52581.59;5074441;28;19971;-68
2022/05/08 00:43:26;;;;;;;;;;;;;;;-140.72;100.00;52585.66;5078442;28;19999;-68
2022/05/08 00:45:51;;;;;;;;;;;;;;;-140.72;100.00;52555.22;5070676;28;20011;-67
2022/05/08 00:48:16;;;;;;;;;;;;;;;-140.72;100.00;52543.03;5087255;28;20039;-67
2022/05/08 00:50:41;;;;;;;;;;;;;;;-140.72;100.00;52565.38;5079816;28;19917;-68
2022/05/08 00:53:07;;;;;;;;;;;;;;;-140.72;100.00;52585.66;5083828;28;19917;-68
2022/05/08 00:55:32;;;;;;;;;;;;;;;-140.72;100.00;52577.53;5089238;28;19923;-67
2022/05/08 00:58:00;;;;;;;;;;;;;;;-140.72;100.00;52534.94;5085344;28;20071;-67
2022/05/08 01:00:25;;;;;;;;;;;;;;;-140.72;100.00;52555.22;5085506;28;20299;-67
2022/05/08 01:02:50;;;;;;;;;;;;;;;-140.72;100.00;52597.84;5086812;28;19920;-68
2022/05/08 01:05:15;;;;;;;;;;;;;;;-140.72;100.00;52573.50;5086052;28;19962;-68
2022/05/08 01:07:41;;;;;;;;;;;;;;;-140.72;100.00;52616.09;5084476;28;20333;-67
2022/05/08 01:10:06;;;;;;;;;;;;;;;-140.72;100.00;52559.28;5087098;28;19928;-67
2022/05/08 01:12:32;;;;;;;;;;;;;;;-140.72;100.00;52549.13;5080706;28;19932;-68
2022/05/08 01:15:14;;;;;;;;;;;;;;;-140.72;100.00;52571.47;5076529;28;19917;-68
2022/05/08 01:17:39;;;;;;;;;;;;;;;-140.72;100.00;52573.50;5082715;28;19916;-67
2022/05/08 01:20:05;;;;;;;;;;;;;;;-140.72;100.00;52589.72;5080287;28;20015;-68
2022/05/08 01:22:31;;;;;;;;;;;;;;;-140.72;100.00;52589.72;5082260;28;20438;-67
2022/05/08 01:24:57;;;;;;;;;;;;;;;-140.72;100.00;52573.50;5095894;28;19999;-67
2022/05/08 01:27:23;;;;;;;;;;;;;;;-140.72;100.00;52569.44;5094195;28;19959;-67
2022/05/08 01:29:48;;;;;;;;;;;;;;;-140.72;100.00;52575.50;5095652;28;19968;-67
2022/05/08 01:32:14;;;;;;;;;;;;;;;-140.72;100.00;52593.78;5095652;28;20020;-67
2022/05/08 01:34:39;;;;;;;;;;;;;;;-140.72;100.00;52612.03;5095568;28;19920;-68
2022/05/08 01:37:04;;;;;;;;;;;;;;;-140.72;100.00;52593.78;5095361;28;20356;-67
2022/05/08 01:39:29;;;;;;;;;;;;;;;-140.72;100.00;52605.94;5093930;28;19927;-68
2022/05/08 01:41:55;;;;;;;;;;;;;;;-140.72;100.00;52626.25;5095132;28;19986;-68
2022/05/08 01:44:23;;;;;;;;;;;;;;;-140.72;100.00;52581.59;5094113;28;19916;-67
2022/05/08 01:46:48;;;;;;;;;;;;;;;-140.72;100.00;52618.13;5098240;28;19919;-67
2022/05/08 01:49:13;;;;;;;;;;;;;;;-140.72;100.00;52595.81;5115652;28;19923;-67
2022/05/08 01:51:38;;;;;;;;;;;;;;;-140.72;100.00;52612.03;5114131;28;19916;-67
2022/05/08 01:54:05;;;;;;;;;;;;;;;-140.72;100.00;52636.38;5114267;28;19920;-68
2022/05/08 01:56:30;;;;;;;;;;;;;;;-140.72;100.00;52610.00;5113658;28;19916;-67
2022/05/08 01:58:56;;;;;;;;;;;;;;;-140.72;100.00;52624.22;5114173;28;19968;-67
2022/05/08 02:01:21;;;;;;;;;;;;;;;-140.72;100.00;52605.94;5115547;28;19916;-68
2022/05/08 02:03:46;;;;;;;;;;;;;;;-140.72;100.00;52638.41;5114149;28;19920;-67
2022/05/08 02:06:14;;;;;;;;;;;;;;;-140.72;100.00;52589.72;5114171;28;19961;-67
2022/05/08 02:08:40;;;;;;;;;;;;;;;-140.72;100.00;52605.94;5115232;28;19948;-67
2022/05/08 02:11:06;;;;;;;;;;;;;;;-140.72;100.00;52630.31;5114765;28;20181;-67
2022/05/08 02:13:31;;;;;;;;;;;;;;;-140.72;100.00;52616.09;5113726;28;19980;-68
2022/05/08 02:15:58;;;;;;;;;;;;;;;-140.72;100.00;52626.25;5097359;28;19923;-67
2022/05/08 02:18:23;;;;;;;;;;;;;;;-140.72;100.00;52620.16;5094324;28;19955;-67
2022/05/08 02:20:49;;;;;;;;;;;;;;;-140.72;100.00;52593.78;5092444;28;20012;-67
2022/05/08 02:23:14;;;;;;;;;;;;;;;-140.72;100.00;52630.31;5094261;28;19965;-68
2022/05/08 02:25:39;;;;;;;;;;;;;;;-140.72;100.00;52585.66;5100488;28;20404;-67
2022/05/08 02:28:05;;;;;;;;;;;;;;;-140.72;100.00;52589.72;5114594;28;19923;-67
2022/05/08 02:30:30;;;;;;;;;;;;;;;-140.72;100.00;52571.47;5103308;28;19920;-67
2022/05/08 02:32:56;;;;;;;;;;;;;;;-140.72;100.00;52595.81;5092371;28;19916;-67
2022/05/08 02:35:22;;;;;;;;;;;;;;;-140.72;100.00;52626.25;5092548;28;19967;-67
2022/05/08 02:37:48;;;;;;;;;;;;;;;-140.72;100.00;52610.00;5094946;28;20285;-67
2022/05/08 02:40:14;;;;;;;;;;;;;;;-140.72;100.00;52593.78;5103293;28;19952;-67
2022/05/08 02:42:39;;;;;;;;;;;;;;;-140.72;100.00;52565.38;5111533;28;19920;-67
2022/05/08 02:45:05;;;;;;;;;;;;;;;-140.72;100.00;52638.41;5114710;28;20323;-67
2022/05/08 02:50:33;;;;;;;;;;;;;;;-140.72;100.00;52642.47;5073938;28;19958;-67
2022/05/08 02:52:58;;;;;;;;;;;;;;;-140.72;100.00;52603.94;5073827;28;19916;-67
2022/05/08 03:00:51;;;;;;;;;;;;;;;-140.72;100.00;52607.97;5114651;28;19985;-67
2022/05/08 03:03:17;;;;;;;;;;;;;;;-140.72;100.00;52632.34;5114226;28;19962;-67
2022/05/08 03:05:44;;;;;;;;;;;;;;;-140.72;100.00;52618.13;5113068;28;20377;-67
2022/05/08 03:08:09;;;;;;;;;;;;;;;-140.72;100.00;52601.91;5114168;28;19927;-67
2022/05/08 03:13:18;;;;;;;;;;;;;;;-140.72;100.00;52652.63;5114487;28;19923;-67
2022/05/08 03:15:43;;;;;;;;;;;;;;;-140.72;100.00;52654.66;5094240;28;19916;-67
2022/05/08 03:18:09;;;;;;;;;;;;;;;-140.72;100.00;52610.00;5092670;28;19923;-67
2022/05/08 03:20:34;;;;;;;;;;;;;;;-140.72;100.00;52620.16;5094397;28;19916;-67
2022/05/08 03:22:59;;;;;;;;;;;;;;;-140.72;100.00;52624.22;5094320;28;19920;-68
2022/05/08 03:25:24;;;;;;;;;;;;;;;-140.72;100.00;52626.25;5091707;28;20275;-67
2022/05/08 03:27:49;;;;;;;;;;;;;;;-140.72;100.00;52618.13;5096090;28;19920;-67
2022/05/08 03:30:15;;;;;;;;;;;;;;;-140.72;100.00;52616.09;5094774;28;19983;-67
2022/05/08 03:32:40;;;;;;;;;;;;;;;-140.72;100.00;52660.75;5093576;28;19916;-67
2022/05/08 03:35:05;;;;;;;;;;;;;;;-140.72;100.00;52670.88;5095467;28;20236;-66
2022/05/08 03:37:33;;;;;;;;;;;;;;;-140.72;100.00;52654.66;5092691;28;20390;-67
2022/05/08 03:39:58;;;;;;;;;;;;;;;-140.72;100.00;52622.19;5091896;28;19920;-68
2022/05/08 03:42:23;;;;;;;;;;;;;;;-140.72;100.00;52650.59;5092046;28;20367;-67
2022/05/08 03:44:48;;;;;;;;;;;;;;;-140.72;100.00;52599.88;5091801;28;19919;-67
2022/05/08 03:47:14;;;;;;;;;;;;;;;-140.72;100.00;52640.44;5091910;28;19920;-67
2022/05/08 03:49:39;;;;;;;;;;;;;;;-140.72;100.00;52618.13;5108840;28;19920;-67
2022/05/08 03:52:04;;;;;;;;;;;;;;;-140.72;100.00;52595.81;5112315;28;19919;-67
2022/05/08 03:54:30;;;;;;;;;;;;;;;-140.72;100.00;52622.19;5113772;28;20397;-67
2022/05/08 03:56:55;;;;;;;;;;;;;;;-140.72;100.00;52626.25;5113554;28;19998;-67
2022/05/08 03:59:20;;;;;;;;;;;;;;;-140.72;100.00;52622.19;5112840;28;19960;-66
2022/05/08 04:01:45;;;;;;;;;;;;;;;-140.72;100.00;52638.41;5111806;28;20327;-67
2022/05/08 04:04:11;;;;;;;;;;;;;;;-140.72;100.00;52660.75;5112428;28;19919;-67
2022/05/08 04:06:37;;;;;;;;;;;;;;;-140.72;100.00;52668.84;5113464;28;20447;-66
2022/05/08 04:09:03;;;;;;;;;;;;;;;-140.72;100.00;52646.53;5113691;28;20019;-67
2022/05/08 04:11:29;;;;;;;;;;;;;;;-140.72;100.00;52642.47;5113394;28;20002;-67
2022/05/08 04:13:55;;;;;;;;;;;;;;;-140.72;100.00;52634.38;5112059;28;20012;-67
2022/05/08 04:16:21;;;;;;;;;;;;;;;-140.72;100.00;52646.53;5112792;28;19963;-67
2022/05/08 04:18:46;;;;;;;;;;;;;;;-140.72;100.00;52658.72;5112099;28;19919;-67
2022/05/08 04:21:12;;;;;;;;;;;;;;;-140.72;100.00;52650.59;5113436;28;19938;-67
2022/05/08 04:26:21;;;;;;;;;;;;;;;-140.72;100.00;52626.25;5117288;28;20412;-67
2022/05/08 04:28:46;;;;;;;;;;;;;;;-140.72;100.00;52660.75;5117376;28;19919;-68
2022/05/08 04:31:12;;;;;;;;;;;;;;;-140.72;100.00;52642.47;5115806;28;19988;-67
2022/05/08 04:33:37;;;;;;;;;;;;;;;-140.72;100.00;52672.91;5115702;28;19916;-68
2022/05/08 04:36:02;;;;;;;;;;;;;;;-140.72;100.00;52646.53;5116808;28;19920;-67
2022/05/08 04:38:28;;;;;;;;;;;;;;;-140.72;100.00;52638.41;5117255;28;19920;-66
2022/05/08 04:40:53;;;;;;;;;;;;;;;-140.72;100.00;52622.19;5115420;28;20367;-67
2022/05/08 04:43:18;;;;;;;;;;;;;;;-140.72;100.00;52605.94;5115645;28;19916;-67
2022/05/08 04:45:44;;;;;;;;;;;;;;;-140.72;100.00;52668.84;5115686;28;19919;-67
2022/05/08 04:48:09;;;;;;;;;;;;;;;-140.72;100.00;52660.75;5111300;28;20374;-67
2022/05/08 04:50:34;;;;;;;;;;;;;;;-140.72;100.00;52634.38;5095062;28;19916;-67
2022/05/08 04:53:00;;;;;;;;;;;;;;;-140.72;100.00;52614.06;5095151;28;19947;-67
2022/05/08 04:55:25;;;;;;;;;;;;;;;-140.72;100.00;52607.97;5095049;28;19916;-67
2022/05/08 04:57:51;;;;;;;;;;;;;;;-140.72;100.00;52597.84;5096092;28;20363;-67
2022/05/08 05:00:16;;;;;;;;;;;;;;;-140.72;100.00;52658.72;5096476;28;19989;-67
2022/05/08 05:02:42;;;;;;;;;;;;;;;-140.72;100.00;52650.59;5095899;28;19924;-67
2022/05/08 05:05:07;;;;;;;;;;;;;;;-140.72;100.00;52636.38;5096193;28;20337;-67
2022/05/08 05:07:32;;;;;;;;;;;;;;;-140.72;100.00;52630.31;5096068;28;19920;-68
2022/05/08 05:09:58;;;;;;;;;;;;;;;-140.72;100.00;52636.38;5096191;28;19916;-68
2022/05/08 05:12:23;;;;;;;;;;;;;;;-140.72;100.00;52612.03;5095758;28;19916;-68
2022/05/08 05:14:48;;;;;;;;;;;;;;;-140.72;100.00;52666.84;5097880;28;19916;-68
2022/05/08 05:17:13;;;;;;;;;;;;;;;-140.72;100.00;52610.00;5095634;28;20282;-74
2022/05/08 05:19:39;;;;;;;;;;;;;;;-140.72;100.00;52626.25;5097787;28;19924;-68
2022/05/08 05:22:04;;;;;;;;;;;;;;;-140.72;100.00;52642.47;5095986;28;19923;-69
2022/05/08 05:24:30;;;;;;;;;;;;;;;-140.72;100.00;52642.47;5096020;28;19920;-68
2022/05/08 05:26:55;;;;;;;;;;;;;;;-140.72;100.00;52626.25;5094988;28;19916;-68
2022/05/08 05:29:20;;;;;;;;;;;;;;;-140.72;100.00;52601.91;5094735;28;19923;-69
2022/05/08 05:31:45;;;;;;;;;;;;;;;-140.72;100.00;52603.94;5095719;28;19916;-71
2022/05/08 05:34:11;;;;;;;;;;;;;;;-140.72;100.00;52610.00;5092963;28;20030;-73
2022/05/08 05:36:36;;;;;;;;;;;;;;;-140.72;100.00;52607.97;5076581;28;19951;-71
2022/05/08 05:39:01;;;;;;;;;;;;;;;-140.72;100.00;52601.91;5086510;28;19927;-71
2022/05/08 05:41:27;;;;;;;;;;;;;;;-140.72;100.00;52589.72;5079516;28;20309;-71
2022/05/08 05:43:53;;;;;;;;;;;;;;;-140.72;100.00;52610.00;5094268;28;19926;-71
2022/05/08 05:49:03;;;;;;;;;;;;;;;-140.72;100.00;52614.06;5108948;28;19926;-70
2022/05/08 05:51:28;;;;;;;;;;;;;;;-140.72;100.00;52567.41;5118166;28;20352;-69
2022/05/08 05:53:53;;;;;;;;;;;;;;;-140.72;100.00;52589.72;5120152;28;19916;-71
2022/05/08 05:56:18;;;;;;;;;;;;;;;-140.72;100.00;52589.72;5118993;28;19916;-72
2022/05/08 05:58:44;;;;;;;;;;;;;;;-140.72;100.00;52601.91;5117107;28;19966;-71
2022/05/08 06:01:09;;;;;;;;;;;;;;;-140.72;100.00;52575.50;5116879;28;19919;-71
2022/05/08 06:03:34;;;;;;;;;;;;;;;-140.72;100.00;52581.59;5087209;28;19916;-71
2022/05/08 06:06:00;;;;;;;;;;;;;;;-140.72;100.00;52573.50;5075707;28;19921;-71
2022/05/08 06:08:25;;;;;;;;;;;;;;;-140.72;100.00;52595.81;5075680;28;19951;-71
2022/05/08 06:10:50;;;;;;;;;;;;;;;-140.72;100.00;52589.72;5075313;28;20271;-73
2022/05/08 06:13:16;;;;;;;;;;;;;;;-140.72;100.00;52585.66;5073918;28;19916;-70
2022/05/08 06:15:42;;;;;;;;;;;;;;;-140.72;100.00;52589.72;5076935;28;19924;-72
2022/05/08 06:18:07;;;;;;;;;;;;;;;-140.72;100.00;52607.97;5080555;28;19916;-71
2022/05/08 06:20:32;;;;;;;;;;;;;;;-140.72;100.00;52605.94;5079519;28;19921;-70
2022/05/08 06:22:57;;;;;;;;;;;;;;;-140.72;100.00;52610.00;5078343;28;20317;-69
2022/05/08 06:25:23;;;;;;;;;;;;;;;-140.72;100.00;52583.63;5078977;28;20386;-69
2022/05/08 06:27:48;;;;;;;;;;;;;;;-140.72;100.00;52541.03;5093875;28;19932;-70
2022/05/08 06:30:13;;;;;;;;;;;;;;;-140.72;100.00;52585.66;5093995;28;19917;-70
2022/05/08 06:32:38;;;;;;;;;;;;;;;-140.72;100.00;52563.34;5075723;28;20287;-69
2022/05/08 06:35:04;;;;;;;;;;;;;;;-140.72;100.00;52616.09;5083239;28;19920;-69
2022/05/08 06:37:29;;;;;;;;;;;;;;;-140.72;100.00;52563.34;5117731;28;20408;-69
2022/05/08 06:39:54;;;;;;;;;;;;;;;-140.72;100.00;52587.69;5117028;28;19919;-71
2022/05/08 06:42:19;;;;;;;;;;;;;;;-140.72;100.00;52593.78;5115268;28;19919;-69
2022/05/08 06:44:45;;;;;;;;;;;;;;;-140.72;100.00;52563.34;5095977;28;20018;-69
2022/05/08 06:47:10;;;;;;;;;;;;;;;-140.72;100.00;52571.47;5091062;28;19931;-69
2022/05/08 06:49:35;;;;;;;;;;;;;;;-140.72;100.00;52543.03;5081215;28;20346;-69
2022/05/08 06:52:00;;;;;;;;;;;;;;;-140.72;100.00;52551.16;5078398;28;19926;-69
2022/05/08 06:54:26;;;;;;;;;;;;;;;-140.72;100.00;52534.94;5077822;28;19924;-69
2022/05/08 06:56:52;;;;;;;;;;;;;;;-140.72;100.00;52575.50;5081802;28;20294;-69
2022/05/08 07:02:01;;;;;;;;;;;;;;;-140.72;100.00;52488.25;5096746;28;19931;-68
2022/05/08 07:04:27;;;;;;;;;;;;;;;-140.72;100.00;52520.72;5096363;28;19916;-68
2022/05/08 07:06:52;;;;;;;;;;;;;;;-140.72;100.00;52567.41;5096967;28;20379;-69
2022/05/08 07:09:18;;;;;;;;;;;;;;;-140.72;100.00;52561.31;5106819;28;19920;-68
2022/05/08 07:11:47;;;;;;;;;;;;;;;-140.72;100.00;52534.94;5098769;28;19920;-70
2022/05/08 07:14:13;;;;;;;;;;;;;;;-140.72;100.00;52551.16;5092385;28;19928;-70
2022/05/08 07:16:38;;;;;;;;;;;;;;;-140.72;100.00;52530.88;5076000;28;20682;-69
2022/05/08 07:19:03;;;;;;;;;;;;;;;-140.72;100.00;52561.31;5074151;28;19920;-69
2022/05/08 07:21:28;;;;;;;;;;;;;;;-140.72;100.00;52557.25;5073655;28;19921;-69
2022/05/08 07:23:55;;;;;;;;;;;;;;;-140.72;100.00;52549.13;5082177;28;19927;-70
2022/05/08 07:26:20;;;;;;;;;;;;;;;-140.72;100.00;52524.78;5076803;28;19924;-70
2022/05/08 07:28:45;;;;;;;;;;;;;;;-140.72;100.00;52522.75;5084222;28;20295;-69
2022/05/08 07:31:11;;;;;;;;;;;;;;;-140.72;100.00;52514.63;5087252;28;19924;-69
2022/05/08 07:33:36;;;;;;;;;;;;;;;-140.72;100.00;52508.56;5077372;28;19943;-68
2022/05/08 07:36:14;;;;;;;;;;;;;;;-140.72;100.00;52530.88;5082494;28;19928;-69
2022/05/08 07:38:44;;;;;;;;;;;;;;;-140.72;100.00;52520.72;5080482;28;19974;-69
2022/05/08 07:41:14;;;;;;;;;;;;;;;-140.72;100.00;52520.72;5080771;28;20302;-69
2022/05/08 07:43:40;;;;;;;;;;;;;;;-140.72;100.00;52536.97;5076467;28;19924;-69
2022/05/08 07:46:05;;;;;;;;;;;;;;;-140.72;100.00;52530.88;5080729;28;20019;-69
2022/05/08 07:48:31;;;;;;;;;;;;;;;-140.72;100.00;52543.03;5075944;28;19920;-70
2022/05/08 07:50:59;;;;;;;;;;;;;;;-140.72;100.00;52526.81;5077962;28;19928;-68
2022/05/08 07:53:24;;;;;;;;;;;;;;;-140.72;100.00;52510.59;5077600;28;19928;-70
2022/05/08 07:55:52;;;;;;;;;;;;;;;-140.72;100.00;52510.59;5079078;28;19978;-69
2022/05/08 07:58:21;;;;;;;;;;;;;;;-140.72;100.00;52502.47;5091289;28;19942;-68
2022/05/08 08:00:46;;;;;;;;;;;;;;;-140.72;100.00;52498.41;5090842;28;19916;-69
2022/05/08 08:03:12;;;;;;;;;;;;;;;-140.72;100.00;52480.16;5090213;28;19927;-69
2022/05/08 08:05:38;;;;;;;;;;;;;;;-140.72;100.00;52455.78;5085184;28;20368;-70
2022/05/08 08:08:03;;;;;;;;;;;;;;;-140.72;100.00;52490.28;5086579;28;19921;-69
2022/05/08 08:10:29;;;;;;;;;;;;;;;-140.72;100.00;52431.44;5091376;28;20018;-68
2022/05/08 08:12:55;;;;;;;;;;;;;;;-140.72;100.00;52482.16;5089324;28;19916;-69
2022/05/08 08:15:20;;;;;;;;;;;;;;;-140.72;100.00;52467.97;5079332;28;19970;-70
2022/05/08 08:17:46;;;;;;;;;;;;;;;-140.72;100.00;52470.00;5077608;28;19969;-69
2022/05/08 08:20:11;;;;;;;;;;;;;;;-140.72;100.00;52417.25;5087278;28;20363;-69
2022/05/08 08:22:36;;;;;;;;;;;;;;;-140.72;100.00;52496.38;5091054;28;19972;-72
2022/05/08 08:25:02;;;;;;;;;;;;;;;-140.72;100.00;52443.63;5084915;28;20437;-69
2022/05/08 08:27:27;;;;;;;;;;;;;;;-140.72;100.00;52427.38;5085835;28;19963;-69
2022/05/08 08:29:54;;;;;;;;;;;;;;;-140.72;100.00;52427.38;5079642;28;19926;-69
2022/05/08 08:32:21;;;;;;;;;;;;;;;-140.72;100.00;52451.72;5077723;28;19927;-69
2022/05/08 08:34:46;;;;;;;;;;;;;;;-140.72;100.00;52478.13;5083945;28;20375;-69
2022/05/08 08:37:11;;;;;;;;;;;;;;;-140.72;100.00;52457.81;5084497;28;19921;-70
2022/05/08 08:39:36;;;;;;;;;;;;;;;-140.72;100.00;52431.44;5079114;28;19959;-70
2022/05/08 08:42:20;;;;;;;;;;;;;;;-140.72;100.00;52439.56;5081160;28;19924;-70
2022/05/08 08:47:42;;;;;;;;;;;;;;;-140.72;100.00;52374.63;5091168;28;19931;-71
2022/05/08 08:50:09;;;;;;;;;;;;;;;-140.72;100.00;52354.34;5088209;28;19931;-76
2022/05/08 08:52:35;;;;;;;;;;;;;;;-140.72;100.00;52354.34;5081434;28;20019;-72
2022/05/08 08:55:00;;;;;;;;;;;;;;;-140.72;100.00;52352.31;5082236;28;20011;-72
2022/05/08 08:57:25;;;;;;;;;;;;;;;-140.72;100.00;52350.28;5080007;28;19924;-73
2022/05/08 08:59:50;;;;;;;;;;;;;;;-140.72;100.00;52334.03;5074961;28;19928;-73
2022/05/08 09:02:16;;;;;;;;;;;;;;;-140.72;100.00;52354.34;5080467;28;19951;-74
2022/05/08 09:04:42;;;;;;;;;;;;;;;-140.72;100.00;52287.38;5076560;28;19927;-72
2022/05/08 09:07:27;;;;;;;;;;;;;;;-140.72;100.00;52334.03;5078216;28;20390;-80
2022/05/08 09:10:05;;;;;;;;;;;;;;;-140.72;100.00;52342.16;5082468;28;19921;-75
2022/05/08 09:12:30;;;;;;;;;;;;;;;-140.72;100.00;52263.03;5079700;28;19931;-73
2022/05/08 09:14:55;;;;;;;;;;;;;;;-140.72;100.00;52236.66;5071345;28;20007;-71
2022/05/08 09:17:20;;;;;;;;;;;;;;;-140.72;100.00;52256.94;5087708;28;20645;-73
2022/05/08 09:19:47;;;;;;;;;;;;;;;-140.72;100.00;52261.00;5082776;28;19931;-73
2022/05/08 09:22:15;;;;;;;;;;;;;;;-140.72;100.00;52252.88;5077488;28;19921;-73
2022/05/08 09:24:54;;;;;;;;;;;;;;;-140.72;100.00;52242.75;5079742;28;19931;-73
2022/05/08 09:27:19;;;;;;;;;;;;;;;-140.72;100.00;52232.59;5081918;28;20050;-73
2022/05/08 09:29:45;;;;;;;;;;;;;;;-140.72;100.00;52192.00;5081643;28;20027;-72
2022/05/08 09:32:30;;;;;;;;;;;;;;;-140.72;100.00;52212.31;5076513;28;19920;-72
2022/05/08 09:34:58;;;;;;;;;;;;;;;-140.72;100.00;52175.78;5088880;28;19932;-78
2022/05/08 09:37:24;;;;;;;;;;;;;;;-140.72;100.00;52171.72;5095482;28;20044;-72
2022/05/08 09:39:49;;;;;;;;;;;;;;;-140.72;100.00;52131.16;5094233;28;20018;-74
2022/05/08 09:42:50;;;;;;;;;;;;;;;-140.72;100.00;52177.81;5082179;28;19981;-71
2022/05/08 09:45:15;;;;;;;;;;;;;;;-140.72;100.00;52145.34;5055544;28;19966;-69
2022/05/08 09:47:49;;;;;;;;;;;;;;;-140.72;100.00;52131.16;5072425;28;19999;-71
2022/05/08 09:50:15;;;;;;;;;;;;;;;-140.72;100.00;52098.69;5082672;28;19958;-74
2022/05/08 09:52:42;;;;;;;;;;;;;;;-140.72;100.00;52052.00;5086149;28;19921;-73
2022/05/08 09:55:08;;;;;;;;;;;;;;;-140.72;100.00;52106.78;5091702;28;19923;-70
2022/05/08 09:57:33;;;;;;;;;;;;;;;-140.72;100.00;52064.19;5084329;28;20419;-70
2022/05/08 09:59:59;;;;;;;;;;;;;;;-140.72;100.00;52054.03;5085515;28;19920;-71
2022/05/08 10:02:24;;;;;;;;;;;;;;;-140.72;100.00;52045.94;5084004;28;20339;-73
2022/05/08 10:04:50;;;;;;;;;;;;;;;-140.72;100.00;52037.81;5075202;28;19921;-73
2022/05/08 10:07:15;;;;;;;;;;;;;;;-140.72;100.00;52088.53;5077135;28;19920;-71
2022/05/08 10:15:18;;;;;;;;;;;;;;;-140.72;100.00;51995.19;5082779;28;20398;-72
2022/05/08 10:17:44;;;;;;;;;;;;;;;-140.72;100.00;51999.25;5086602;28;20398;-73
2022/05/08 10:20:09;;;;;;;;;;;;;;;-140.72;100.00;52001.28;5076755;28;19924;-73
2022/05/08 10:22:48;;;;;;;;;;;;;;;-140.72;100.00;52001.28;5084052;28;19921;-74
2022/05/08 10:25:15;;;;;;;;;;;;;;;-140.72;100.00;51964.78;5084351;28;20422;-72
2022/05/08 10:27:41;;;;;;;;;;;;;;;-140.72;100.00;51987.09;5083906;28;19970;-73
2022/05/08 10:30:06;;;;;;;;;;;;;;;-140.72;100.00;51993.19;5081628;28;19920;-72
2022/05/08 10:32:31;;;;;;;;;;;;;;;-140.72;100.00;51997.22;5087010;28;19928;-73
2022/05/08 10:35:16;;;;;;;;;;;;;;;-140.72;100.00;51958.69;5079677;28;19920;-72
2022/05/08 10:37:42;;;;;;;;;;;;;;;-140.72;100.00;51952.59;5072542;28;19947;-72
2022/05/08 10:40:23;;;;;;;;;;;;;;;-140.72;100.00;51944.47;5082241;28;20379;-74
2022/05/08 10:42:48;;;;;;;;;;;;;;;-140.72;100.00;51946.50;5076435;28;19959;-71
2022/05/08 10:45:32;;;;;;;;;;;;;;;-140.72;100.00;51938.41;5077035;28;19956;-72
2022/05/08 10:47:58;;;;;;;;;;;;;;;-140.72;100.00;51989.13;5083875;28;19916;-73
2022/05/08 10:50:23;;;;;;;;;;;;;;;-140.72;100.00;51942.44;5080118;28;19916;-70
2022/05/08 10:52:50;;;;;;;;;;;;;;;-140.72;100.00;51936.38;5081165;28;19920;-73
2022/05/08 10:55:16;;;;;;;;;;;;;;;-140.72;100.00;51916.06;5080956;28;19926;-73
2022/05/08 10:57:42;;;;;;;;;;;;;;;-140.72;100.00;51944.47;5080616;28;19917;-73
2022/05/08 11:00:11;;;;;;;;;;;;;;;-140.72;100.00;51847.09;5078695;28;20693;-72
2022/05/08 11:02:40;;;;;;;;;;;;;;;-140.72;100.00;51914.03;5081604;28;19921;-72
2022/05/08 11:05:06;;;;;;;;;;;;;;;-140.72;100.00;51873.47;5081159;28;19916;-74
2022/05/08 11:07:31;;;;;;;;;;;;;;;-140.72;100.00;51887.66;5083417;28;19920;-73
2022/05/08 11:09:57;;;;;;;;;;;;;;;-140.72;100.00;51816.66;5079071;28;19939;-73
2022/05/08 11:12:23;;;;;;;;;;;;;;;-140.72;100.00;51828.84;5087423;28;19966;-74
2022/05/08 11:14:49;;;;;;;;;;;;;;;-140.72;100.00;51859.28;5083324;28;20268;-74
2022/05/08 11:17:15;;;;;;;;;;;;;;;-140.72;100.00;51948.53;5082808;28;20042;-72
2022/05/08 11:19:53;;;;;;;;;;;;;;;-140.72;100.00;51861.28;5080190;28;20287;-72
2022/05/08 11:22:18;;;;;;;;;;;;;;;-140.72;100.00;51883.63;5078666;28;19955;-72
2022/05/08 11:24:49;;;;;;;;;;;;;;;-140.72;100.00;51855.22;5082822;28;19916;-72
2022/05/08 11:27:14;;;;;;;;;;;;;;;-140.72;100.00;51875.50;5083343;28;19923;-71
2022/05/08 11:29:46;;;;;;;;;;;;;;;-140.72;100.00;51863.31;5078230;28;19920;-71
2022/05/08 11:38:02;;;;;;;;;;;;;;;-140.72;100.00;51832.91;5089117;28;19995;-70
2022/05/08 11:40:27;;;;;;;;;;;;;;;-140.72;100.00;51782.16;5080946;28;19969;-70
2022/05/08 11:42:54;;;;;;;;;;;;;;;-140.72;100.00;51774.06;5080967;28;21511;-69
2022/05/08 11:45:19;;;;;;;;;;;;;;;-140.72;100.00;51822.75;5079143;28;19925;-74
2022/05/08 11:47:53;;;;;;;;;;;;;;;-140.72;100.00;51794.34;5075891;28;19966;-73
2022/05/08 11:50:19;;;;;;;;;;;;;;;-140.72;100.00;51838.97;5083081;28;19916;-72
2022/05/08 11:52:44;;;;;;;;;;;;;;;-140.72;100.00;51824.78;5079615;28;19928;-71
2022/05/08 11:55:09;;;;;;;;;;;;;;;-140.72;100.00;51776.09;5082790;28;19920;-72
2022/05/08 11:57:42;;;;;;;;;;;;;;;-140.72;100.00;51778.13;5077804;28;20363;-72
2022/05/08 12:00:11;;;;;;;;;;;;;;;-140.72;100.00;51784.19;5077037;28;20418;-69
2022/05/08 12:02:38;;;;;;;;;;;;;;;-140.72;100.00;51790.28;5101418;28;19907;-71
2022/05/08 12:05:03;;;;;;;;;;;;;;;-140.72;96.01;51802.47;5120577;28;19919;-71
2022/05/08 12:07:37;;;;;;;;;;;;;;;-140.72;92.16;51778.13;5126412;28;19958;-71
2022/05/08 12:10:02;;;;;;;;;;;;;;;-140.72;100.00;51790.28;5092144;28;19978;-71
2022/05/08 12:12:28;;;;;;;;;;;;;;;-140.72;91.19;51741.59;5101869;28;19984;-72
2022/05/08 12:14:54;;;;;;;;;;;;;;;-140.72;95.33;51818.69;5102610;28;20507;-72
2022/05/08 12:17:20;;;;;;;;;;;;;;;-140.72;100.00;51759.84;5100766;28;19948;-73
2022/05/08 12:19:53;;;;;;;;;;;;;;;-140.72;98.87;51792.31;5100398;28;19923;-71
2022/05/08 12:22:23;;;;;;;;;;;;;;;-140.72;90.71;51733.47;5102327;28;19969;-72
2022/05/08 12:24:48;;;;;;;;;;;;;;;-140.72;98.17;51778.13;5094585;28;19916;-72
2022/05/08 12:27:14;;;;;;;;;;;;;;;-140.72;91.08;51776.09;5099455;28;20023;-72
2022/05/08 12:29:41;;;;;;;;;;;;;;;-140.72;91.30;51755.81;5098503;28;19946;-72
2022/05/08 12:32:06;;;;;;;;;;;;;;;-140.72;85.86;51761.88;5094940;28;19927;-71
2022/05/08 12:34:32;;;;;;;;;;;;;;;-140.72;75.77;51753.78;5095288;28;19916;-72
2022/05/08 12:36:57;;;;;;;;;;;;;;;-140.72;89.51;51812.59;5084210;28;20015;-71
2022/05/08 12:39:22;;;;;;;;;;;;;;;-140.72;81.56;51757.81;5095108;28;20054;-74
2022/05/08 12:41:47;;;;;;;;;;;;;;;-140.72;93.22;51792.31;5089913;28;19920;-77
2022/05/08 12:44:13;;;;;;;;;;;;;;;-140.72;89.36;51757.81;5089540;28;19920;-74
2022/05/08 12:46:38;;;;;;;;;;;;;;;-140.72;91.94;51796.38;5111090;28;19958;-73
2022/05/08 12:49:04;;;;;;;;;;;;;;;-140.72;90.28;51729.44;5095477;28;20002;-74